• Join FlightAware (Why Join?)
  • Login
  • US Flag 
04:32AM EST


 

Airport Tracker/Info


-or-


 

Live Flight TrackerFlight Track Log ✈ C-FPYX ✈ 22-Aug-2013 ✈ CYQT - CYKZ

Flight Track Log - Related Links

Times and Time Zones

All times are in EDT time to prevent confusion due to time zone crossing. See the C-FPYX flight status page for this flight to view local times or setup timezone preferences in your user account.

Time Position Orientation Groundspeed Altitude Reporting Facility
EDT Latitude Longitude Course Direction KTS MPH feet Rate Location/Type
06:02PM 48.3667 -89.3167 117° Southeast 80 92 1,300  Level Winnipeg Center
06:03PM 48.4000 -89.3000 18° North 100 115 1,800 650 Climbing Winnipeg Center
06:04PM 48.4000 -89.2833 90° East 100 115 2,600 800 Climbing Winnipeg Center
06:05PM 48.4333 -89.2667 18° North 100 115 3,400 700 Climbing Winnipeg Center
06:06PM 48.4333 -89.2167 90° East 120 138 4,000 550 Climbing Winnipeg Center
06:07PM 48.4167 -89.1667 117° Southeast 130 150 4,500 550 Climbing Winnipeg Center
06:08PM 48.2271 -88.9146 117° Southeast  Level FlightAware Approximate
06:08PM 48.3833 -89.1333 146° Southeast 130 150 5,100  Level Winnipeg Center
06:09PM 48.3667 -89.1000 127° Southeast 130 150 5,600 550 Climbing Winnipeg Center
06:10PM 48.3333 -89.0667 146° Southeast 130 150 6,200 550 Climbing Winnipeg Center
06:11PM 48.3000 -89.0333 146° Southeast 130 150 6,700 500 Climbing Winnipeg Center
06:12PM 48.2833 -88.9667 111° Southeast 130 150 7,200 500 Climbing Winnipeg Center
06:13PM 48.2833 -88.9167 90° East 130 150 7,700 500 Climbing Winnipeg Center
06:14PM 48.2667 -88.8667 117° Southeast 130 150 8,200 400 Climbing Winnipeg Center
06:15PM 48.2333 -88.8333 146° Southeast 140 161 8,500 300 Climbing Winnipeg Center
06:16PM 48.2167 -88.7833 117° Southeast 140 161 8,800 300 Climbing Winnipeg Center
06:17PM 48.2000 -88.7333 117° Southeast 150 173 9,100 150 Climbing Winnipeg Center
06:18PM 48.1833 -88.6833 117° Southeast 150 173 9,100  Level Winnipeg Center
06:19PM 48.1667 -88.6167 111° Southeast 160 184 9,100  Level Winnipeg Center
06:20PM 48.1333 -88.5667 135° Southeast 160 184 9,100  Level Winnipeg Center
06:21PM 48.1167 -88.5000 111° Southeast 150 173 9,100  Level Winnipeg Center
06:22PM 48.1000 -88.4500 117° Southeast 160 184 9,100  Level Winnipeg Center
06:23PM 48.0833 -88.4000 117° Southeast 160 184 9,100  Level Winnipeg Center
06:24PM 48.0500 -88.3333 127° Southeast 150 173 9,100  Level Winnipeg Center
06:25PM 48.0333 -88.2833 116° Southeast 150 173 9,100  Level Winnipeg Center
06:26PM 48.0167 -88.2167 110° East 150 173 9,100  Level Winnipeg Center
06:27PM 47.9833 -88.1667 135° Southeast 150 173 9,100  Level Winnipeg Center
06:28PM 47.9667 -88.1167 116° Southeast 150 173 9,100  Level Winnipeg Center
06:29PM 47.9500 -88.0667 116° Southeast 150 173 9,100  Level Winnipeg Center
06:30PM 47.9333 -88.0000 110° East 150 173 9,100  Level Winnipeg Center
06:31PM 47.9000 -87.9500 135° Southeast 150 173 9,100  Level Winnipeg Center
06:32PM 47.8833 -87.9000 116° Southeast 150 173 9,100  Level Winnipeg Center
06:33PM 47.8667 -87.8333 110° East 150 173 9,100  Level Winnipeg Center
06:34PM 47.8333 -87.7833 135° Southeast 150 173 9,100  Level Winnipeg Center
06:35PM 47.8167 -87.7167 110° East 150 173 9,100  Level Winnipeg Center
06:36PM 47.8000 -87.6667 116° Southeast 150 173 9,100  Level Winnipeg Center
06:37PM 47.7833 -87.6333 127° Southeast 150 173 9,100  Level Winnipeg Center
06:39PM 47.7449 -87.5755 135° Southeast  Level FlightAware Approximate
06:39PM 47.7333 -87.5167 135° Southeast 150 173 9,100  Level Winnipeg Center
06:40PM 47.7167 -87.4667 116° Southeast 150 173 9,100  Level Winnipeg Center
06:41PM 47.7000 -87.4167 116° Southeast 150 173 9,100  Level Winnipeg Center
06:42PM 47.6667 -87.3500 127° Southeast 150 173 9,100  Level Winnipeg Center
06:43PM 47.6500 -87.3000 116° Southeast 150 173 9,100  Level Winnipeg Center
06:44PM 47.6333 -87.2333 110° East 150 173 9,100  Level Winnipeg Center
06:45PM 47.6000 -87.1833 135° Southeast 160 184 9,100  Level Winnipeg Center
06:46PM 47.5833 -87.1333 116° Southeast 160 184 9,100  Level Winnipeg Center
06:47PM 47.5667 -87.0667 110° East 150 173 9,100  Level Winnipeg Center
06:48PM 47.5333 -87.0333 146° Southeast 160 184 9,100  Level Winnipeg Center
06:49PM 47.5167 -86.9500 106° East 160 184 9,100 -50 Level Winnipeg Center
06:50PM 47.5000 -86.9167 126° Southeast 160 184 9,000 -50 Descending Winnipeg Center
06:51PM 47.4667 -86.8333 121° Southeast 160 184 9,000  Level Winnipeg Center
06:52PM 47.4500 -86.8000 126° Southeast 160 184 9,000  Level Winnipeg Center
06:54PM 47.4116 -86.7424 135° Southeast  Level FlightAware Approximate
07:01PM 47.2536 -86.3614 121° Southeast  Level FlightAware Approximate
07:02PM 47.2314 -86.3068 121° Southeast  Level FlightAware Approximate
07:03PM 47.2092 -86.2523 121° Southeast  Level FlightAware Approximate
07:04PM 47.1870 -86.1978 121° Southeast  Level FlightAware Approximate
07:05PM 47.1648 -86.1434 121° Southeast  Level FlightAware Approximate
07:06PM 47.1426 -86.0890 121° Southeast  Level FlightAware Approximate
07:07PM 47.1203 -86.0347 121° Southeast  Level FlightAware Approximate
07:08PM 47.0980 -85.9804 121° Southeast  Level FlightAware Approximate
07:08PM 47.1000 -85.9333 121° Southeast 160 184 9,000  Level Winnipeg Center
07:09PM 47.0756 -85.9261 121° Southeast  Level FlightAware Approximate
07:09PM 47.0833 -85.9333 180° South 160 184 9,100  Level Toronto Center
07:10PM 47.0533 -85.8719 121° Southeast  Level FlightAware Approximate
07:11PM 47.0309 -85.8178 121° Southeast  Level FlightAware Approximate
07:11PM 47.0500 -85.8167 113° Southeast 160 184 9,000  Level Toronto Center
07:12PM 47.0087 -85.7635 121° Southeast  Level FlightAware Approximate
07:13PM 46.9866 -85.7091 121° Southeast  Level FlightAware Approximate
07:14PM 46.9833 -85.6667 123° Southeast 160 184 9,000  Level Toronto Center
07:16PM 46.9333 -85.5500 122° Southeast 160 184 9,000 26 Level Toronto Center
07:18PM 46.8833 -85.4333 122° Southeast 160 184 9,100  Climbing Toronto Center
07:19PM 46.8500 -85.3833 134° Southeast 160 184 9,000  Descending Toronto Center
07:20PM 46.8500 -85.3333 90° East 160 184 9,100  Climbing Toronto Center
07:21PM 46.8167 -85.2833 134° Southeast 160 184 9,000 -50 Descending Toronto Center
07:22PM 46.8000 -85.2333 116° Southeast 160 184 9,000  Level Toronto Center
07:23PM 46.7667 -85.1667 126° Southeast 160 184 9,000  Level Toronto Center
07:24PM 46.7500 -85.1000 110° East 160 184 9,000  Level Toronto Center
07:25PM 46.7167 -85.0500 134° Southeast 160 184 9,000  Level Toronto Center
07:26PM 46.7000 -85.0000 116° Southeast 160 184 9,000  Level Toronto Center
07:27PM 46.6833 -84.9500 116° Southeast 160 184 9,000  Level Toronto Center
07:28PM 46.6500 -84.9000 134° Southeast 160 184 9,000 33 Level Toronto Center
07:30PM 46.6000 -84.7833 122° Southeast 170 196 9,100  Climbing Toronto Center
07:31PM 46.5667 -84.7333 134° Southeast 170 196 9,000  Descending Toronto Center
07:32PM 46.5500 -84.6833 116° Southeast 170 196 9,100  Climbing Toronto Center
07:33PM 46.5333 -84.6167 110° East 170 196 9,000  Descending Toronto Center
07:34PM 46.5167 -84.5500 110° East 170 196 9,100 50 Climbing Toronto Center
07:35PM 46.4833 -84.5000 134° Southeast 160 184 9,100  Level Toronto Center
07:36PM 46.4667 -84.4500 116° Southeast 160 184 9,100 -50 Level Toronto Center
07:37PM 46.4333 -84.4000 134° Southeast 160 184 9,000 -50 Descending Toronto Center
07:38PM 46.4000 -84.3167 120° Southeast 160 184 9,000  Level Toronto Center
07:39PM 46.3833 -84.2667 116° Southeast 160 184 9,000 50 Level Toronto Center
07:40PM 46.3667 -84.2167 116° Southeast 160 184 9,100  Climbing Toronto Center
07:41PM 46.3333 -84.1667 134° Southeast 160 184 9,000 -50 Descending Toronto Center
07:42PM 46.3167 -84.1167 116° Southeast 160 184 9,000 50 Level Toronto Center
07:43PM 46.2833 -84.0667 134° Southeast 160 184 9,100  Climbing Toronto Center
07:44PM 46.2500 -84.0167 134° Southeast 160 184 9,000 -50 Descending Toronto Center
07:45PM 46.2333 -83.9667 116° Southeast 160 184 9,000  Level Toronto Center
07:46PM 46.2000 -83.9167 134° Southeast 160 184 9,000  Level Toronto Center
07:47PM 46.1833 -83.8667 116° Southeast 160 184 9,000  Level Toronto Center
07:48PM 46.1500 -83.8167 134° Southeast 160 184 9,000  Level Toronto Center
07:49PM 46.1333 -83.7667 116° Southeast 160 184 9,000  Level Toronto Center
07:50PM 46.1167 -83.7167 116° Southeast 160 184 9,000  Level Toronto Center
07:51PM 46.0833 -83.6667 134° Southeast 160 184 9,000  Level Toronto Center
07:52PM 46.0500 -83.6000 126° Southeast 160 184 9,000  Level Toronto Center
07:53PM 46.0333 -83.5500 116° Southeast 160 184 9,000  Level Toronto Center
07:54PM 46.0000 -83.5000 134° Southeast 160 184 9,000  Level Toronto Center
07:55PM 45.9667 -83.4500 134° Southeast 160 184 9,000 50 Level Toronto Center
07:56PM 45.9500 -83.4000 116° Southeast 160 184 9,100 50 Climbing Toronto Center
07:57PM 45.9167 -83.3500 134° Southeast 160 184 9,100  Level Toronto Center
07:58PM 45.8833 -83.3000 134° Southeast 160 184 9,100 -50 Level Toronto Center
07:59PM 45.8833 -83.2500 90° East 160 184 9,000 -50 Descending Toronto Center
08:00PM 45.8500 -83.2000 134° Southeast 160 184 9,000  Level Toronto Center
08:01PM 45.8167 -83.1333 126° Southeast 160 184 9,000  Level Toronto Center
08:02PM 45.7833 -83.0833 134° Southeast 160 184 9,000  Level Toronto Center
08:03PM 45.7667 -83.0333 116° Southeast 160 184 9,000  Level Toronto Center
08:04PM 45.7333 -82.9833 134° Southeast 160 184 9,000  Level Toronto Center
08:05PM 45.7000 -82.9333 134° Southeast 160 184 9,000  Level Toronto Center
08:06PM 45.6833 -82.8833 115° Southeast 160 184 9,000 50 Level Toronto Center
08:07PM 45.6500 -82.8333 134° Southeast 160 184 9,100 50 Climbing Toronto Center
08:08PM 45.6167 -82.7833 134° Southeast 160 184 9,100  Level Toronto Center
08:09PM 45.6000 -82.7333 115° Southeast 160 184 9,100  Level Toronto Center
08:10PM 45.5833 -82.6500 106° East 160 184 9,100  Level Toronto Center
08:11PM 45.5500 -82.6167 145° Southeast 160 184 9,100  Level Toronto Center
08:12PM 45.5167 -82.5667 134° Southeast 160 184 9,100  Level Toronto Center
08:13PM 45.5000 -82.5167 115° Southeast 160 184 9,100  Level Toronto Center
08:14PM 45.4667 -82.4667 134° Southeast 170 196 9,100  Level Toronto Center
08:16PM 45.4167 -82.3667 125° Southeast 170 196 9,100  Level Toronto Center
08:18PM 45.3500 -82.2500 129° Southeast 170 196 9,100  Level Toronto Center
08:19PM 45.3167 -82.2000 133° Southeast 160 184 9,100  Level Toronto Center
08:20PM 45.3000 -82.1500 115° Southeast 160 184 9,100  Level Toronto Center
08:21PM 45.2667 -82.1000 133° Southeast 160 184 9,100  Level Toronto Center
08:22PM 45.2333 -82.0500 133° Southeast 170 196 9,100 -50 Level Toronto Center
08:23PM 45.2167 -82.0000 115° Southeast 170 196 9,000 -50 Descending Toronto Center
08:24PM 45.2000 -81.9333 110° East 170 196 9,000 50 Level Toronto Center
08:25PM 45.1667 -81.8833 133° Southeast 160 184 9,100 50 Climbing Toronto Center
08:26PM 45.1333 -81.8333 133° Southeast 160 184 9,100  Level Toronto Center
08:27PM 45.1167 -81.7833 115° Southeast 160 184 9,100  Level Toronto Center
08:29PM 45.0678 -81.6954 128° Southeast  Level FlightAware Approximate
08:30PM 45.0167 -81.6167 128° Southeast 250 288 9,100  Level Toronto Center
08:31PM 45.0000 -81.5667 115° Southeast 170 196 9,100  Level Toronto Center
08:32PM 44.9667 -81.5167 133° Southeast 170 196 9,100  Level Toronto Center
08:33PM 44.9333 -81.4667 133° Southeast 170 196 9,100  Level Toronto Center
08:34PM 44.9167 -81.4167 115° Southeast 170 196 9,100  Level Toronto Center
08:35PM 44.8833 -81.3667 133° Southeast 160 184 9,100  Level Toronto Center
08:36PM 44.8500 -81.3333 145° Southeast 170 196 9,100  Level Toronto Center
08:38PM 44.8040 -81.2411 125° Southeast  Level FlightAware Approximate
08:40PM 44.7167 -81.0667 122° Southeast 170 196 9,100  Level Toronto Center
08:41PM 44.6833 -81.0167 133° Southeast 170 196 9,100  Level Toronto Center
08:42PM 44.6667 -80.9500 109° East 180 207 9,100  Level Toronto Center
08:43PM 44.6333 -80.9000 133° Southeast 170 196 9,100  Level Toronto Center
08:44PM 44.6167 -80.8500 115° Southeast 170 196 9,100  Level Toronto Center
08:45PM 44.6390 -80.8882 122° Southeast  Level FlightAware Approximate
08:45PM 44.6000 -80.8000 115° Southeast 170 196 9,100  Level Toronto Center
08:46PM 44.6162 -80.8372 122° Southeast  Level FlightAware Approximate
08:46PM 44.5833 -80.7333 109° East 170 196 9,100  Level Toronto Center
08:47PM 44.5500 -80.6833 133° Southeast 170 196 9,100  Level Toronto Center
08:48PM 44.5333 -80.6167 109° East 170 196 9,100 -50 Level Toronto Center
08:49PM 44.5000 -80.5667 133° Southeast 170 196 9,000 -250 Descending Toronto Center
08:50PM 44.4667 -80.5000 125° Southeast 180 207 8,600 -400 Descending Toronto Center
08:51PM 44.4500 -80.4500 115° Southeast 180 207 8,200 -350 Descending Toronto Center
08:52PM 44.4167 -80.3833 125° Southeast 180 207 7,900 -350 Descending Toronto Center
08:53PM 44.4000 -80.3333 115° Southeast 180 207 7,500 -400 Descending Toronto Center
08:54PM 44.3667 -80.2667 125° Southeast 180 207 7,100 -400 Descending Toronto Center
08:55PM 44.3333 -80.2167 133° Southeast 180 207 6,700 -350 Descending Toronto Center
08:56PM 44.3000 -80.1667 133° Southeast 180 207 6,400 -350 Descending Toronto Center
08:57PM 44.2667 -80.1167 133° Southeast 180 207 6,000 -400 Descending Toronto Center
08:58PM 44.2333 -80.0500 125° Southeast 180 207 5,600 -350 Descending Toronto Center
08:59PM 44.2000 -80.0000 133° Southeast 180 207 5,300 -350 Descending Toronto Center
09:00PM 44.1833 -79.9333 109° East 180 207 4,900 -400 Descending Toronto Center
09:01PM 44.1667 -79.8833 115° Southeast 180 207 4,500 -450 Descending Toronto Center
09:02PM 44.1333 -79.8167 125° Southeast 180 207 4,000 -450 Descending Toronto Center
09:03PM 44.1167 -79.7500 109° East 170 196 3,600 -350 Descending Toronto Center
09:04PM 44.0833 -79.7000 133° Southeast 170 196 3,300 -250 Descending Toronto Center
09:05PM 44.0667 -79.6500 115° Southeast 170 196 3,100 -150 Descending Toronto Center
09:06PM 44.0500 -79.5833 109° East 160 184 3,000  Descending Toronto Center
09:07PM 44.0167 -79.5333 133° Southeast 160 184 3,100 50 Climbing Toronto Center
09:08PM 44.0000 -79.5000 125° Southeast 160 184 3,100 -50 Level Toronto Center
09:09PM 43.9667 -79.4500 133° Southeast 160 184 3,000 -350 Descending Toronto Center
09:10PM 43.9333 -79.4000 133° Southeast 160 184 2,400 -600 Descending Toronto Center
09:11PM 43.9000 -79.3833 160° South 160 184 1,800 -350 Descending Toronto Center
09:12PM 43.8667 -79.3333 133° Southeast 140 161 1,700 -150 Descending Toronto Center
09:13PM 43.8500 -79.3167 144° Southeast 120 138 1,500 -350 Descending Toronto Center
09:14PM 43.8333 -79.3333 216° Southwest 80 92 1,000 -500 Descending Toronto Center